Arago, Minnesota
Current Conditions -  °F | °C
As of 2:53 AM on Monday 20 Oct 2014 (Local Time) from KPKD Reporting Station
Clear Clear  
Wind Chill: 34°   Ceiling: Unl
Heat Index: 40°   Visibility: 10mi
Dew Point: 38°   Wind: 9mph
Humidity: 93%   Direction: 300°WNW
Pressure: 29.91"   Gusts: NA
Location:  46.9966°N, 95.0029°W
Report Text: KPKD 200753Z AUTO 30008KT 10SM CLR 04/03 A2991 RMK AO2 SLP135 T00440033 TSNO
Loading
Personal Weather Stations






























Interactive Weather Map New forecast layout! Learn more

10-Day Weather Forecast

Advertisements
Track Severe Weather on mobile